Time;durP1;ratioP1;P1;durP2;ratioP2;P2;SDS_P1;SDS_P2;PMS_P1;PMS_P2;Temp;Humidity;BMP_temperature;BMP_pressure;BME280_temperature;BME280_humidity;BME280_pressure;Samples;Min_cycle;Max_cycle;Signal;HPM_P1;HPM_P2
2022/05/07 00:01:42;;;;;;;15.07;10.68;;;13.90;69.00;;;;;;5094248;28;20102;-90
2022/05/07 00:04:09;;;;;;;15.35;10.50;;;13.90;69.20;;;;;;5093877;28;20048;-91
2022/05/07 00:06:36;;;;;;;14.77;10.18;;;13.90;69.30;;;;;;5094438;28;20063;-91
2022/05/07 00:09:03;;;;;;;17.27;11.05;;;13.90;69.50;;;;;;5093958;28;20105;-91
2022/05/07 00:11:30;;;;;;;19.90;11.05;;;13.90;69.60;;;;;;5094282;28;20468;-91
2022/05/07 00:19:28;;;;;;;15.30;10.52;;;13.80;70.00;;;;;;5093551;28;20490;-90
2022/05/07 00:21:55;;;;;;;15.18;9.93;;;13.80;70.20;;;;;;5094473;28;20460;-90
2022/05/07 00:24:21;;;;;;;15.00;10.27;;;13.80;70.30;;;;;;5093667;28;20160;-90
2022/05/07 00:26:48;;;;;;;14.73;10.68;;;13.80;70.50;;;;;;5093776;28;20044;-90
2022/05/07 00:29:15;;;;;;;15.82;10.63;;;13.80;70.60;;;;;;5093645;28;20047;-92
2022/05/07 00:31:42;;;;;;;20.17;10.77;;;13.70;70.70;;;;;;5093596;28;20040;-91
2022/05/07 00:34:09;;;;;;;13.73;9.35;;;13.70;70.90;;;;;;5093616;28;20044;-91
2022/05/07 00:36:36;;;;;;;17.42;11.30;;;13.70;71.00;;;;;;5093811;28;20044;-90
2022/05/07 00:39:04;;;;;;;15.15;10.30;;;13.70;71.10;;;;;;5093133;28;20105;-91
2022/05/07 00:41:31;;;;;;;16.98;10.77;;;13.70;71.20;;;;;;5093473;28;20044;-90
2022/05/07 00:43:57;;;;;;;16.05;9.95;;;13.70;71.30;;;;;;5093284;28;20082;-91
2022/05/07 00:46:26;;;;;;;17.50;10.43;;;13.70;71.40;;;;;;5093381;28;20448;-91
2022/05/07 00:48:54;;;;;;;12.02;9.20;;;13.70;71.60;;;;;;5093547;28;20088;-92
2022/05/07 00:51:33;;;;;;;14.82;10.43;;;13.70;71.60;;;;;;5093427;28;20040;-91
2022/05/07 00:54:05;;;;;;;16.23;10.07;;;13.70;71.70;;;;;;5093032;28;20043;-90
2022/05/07 00:56:33;;;;;;;16.45;11.43;;;13.70;71.80;;;;;;5093121;28;20044;-92
2022/05/07 00:59:01;;;;;;;18.48;11.32;;;13.70;72.00;;;;;;5093092;28;20044;-91
2022/05/07 01:01:28;;;;;;;17.77;11.05;;;13.70;72.10;;;;;;5093106;28;20059;-91
2022/05/07 01:03:56;;;;;;;18.45;11.32;;;13.70;72.10;;;;;;5093269;28;20071;-91
2022/05/07 01:06:23;;;;;;;17.58;12.02;;;13.70;72.20;;;;;;5092834;28;20472;-91
2022/05/07 01:08:50;;;;;;;16.48;11.02;;;13.70;72.30;;;;;;5091740;28;20044;-91
2022/05/07 01:11:18;;;;;;;19.80;12.05;;;13.70;72.40;;;;;;5092672;28;20588;-91
2022/05/07 01:13:47;;;;;;;22.02;11.98;;;13.70;72.50;;;;;;5092640;28;20101;-90
2022/05/07 01:16:14;;;;;;;20.73;12.05;;;13.70;72.50;;;;;;5092664;28;20048;-90
2022/05/07 01:18:42;;;;;;;21.80;13.13;;;13.70;72.60;;;;;;5093130;28;20452;-91
2022/05/07 01:21:14;;;;;;;19.08;12.93;;;13.70;72.70;;;;;;5092547;28;20048;-90
2022/05/07 01:23:43;;;;;;;20.88;13.15;;;13.70;72.80;;;;;;5091906;28;20044;-89
2022/05/07 01:26:10;;;;;;;21.65;14.10;;;13.70;72.90;;;;;;5092576;28;20070;-91
2022/05/07 01:31:28;;;;;;;18.52;14.02;;;13.70;73.10;;;;;;5092285;28;20044;-89
2022/05/07 01:33:55;;;;;;;23.65;13.80;;;13.70;73.30;;;;;;5091674;28;20506;-91
2022/05/07 01:36:22;;;;;;;21.33;14.27;;;13.70;73.30;;;;;;5092378;28;20047;-91
2022/05/07 01:38:49;;;;;;;23.60;14.98;;;13.70;73.40;;;;;;5092188;28;20048;-89
2022/05/07 01:41:16;;;;;;;20.05;13.10;;;13.70;73.60;;;;;;5092230;28;20105;-90
2022/05/07 01:43:43;;;;;;;21.25;13.25;;;13.70;73.60;;;;;;5092225;28;20555;-90
2022/05/07 01:48:55;;;;;;;19.83;15.00;;;13.70;73.80;;;;;;5092721;28;20109;-91
2022/05/07 01:51:22;;;;;;;25.42;15.10;;;13.70;73.80;;;;;;5092127;28;20044;-90
2022/05/07 01:53:49;;;;;;;24.67;15.90;;;13.60;73.90;;;;;;5091985;28;20051;-91
2022/05/07 01:56:16;;;;;;;25.65;15.02;;;13.60;74.00;;;;;;5092148;28;20059;-90
2022/05/07 01:58:44;;;;;;;23.45;14.75;;;13.70;74.10;;;;;;5092221;28;20463;-90
2022/05/07 02:01:11;;;;;;;20.98;15.40;;;13.70;74.10;;;;;;5092069;28;20048;-90
2022/05/07 02:03:38;;;;;;;26.45;15.82;;;13.60;74.20;;;;;;5091510;28;20479;-90
2022/05/07 02:06:05;;;;;;;24.55;14.98;;;13.60;74.30;;;;;;5092006;28;20101;-90
2022/05/07 02:08:32;;;;;;;20.48;14.65;;;13.70;74.30;;;;;;5091930;28;20463;-91
2022/05/07 02:11:01;;;;;;;22.45;15.57;;;13.60;74.40;;;;;;5091948;28;20089;-91
2022/05/07 02:13:28;;;;;;;22.70;16.10;;;13.70;74.40;;;;;;5092074;28;20048;-90
2022/05/07 02:15:55;;;;;;;22.95;15.35;;;13.70;74.50;;;;;;5092194;28;20054;-91
2022/05/07 02:18:23;;;;;;;25.63;15.27;;;13.70;74.60;;;;;;5091758;28;20054;-91
2022/05/07 02:20:49;;;;;;;25.15;16.08;;;13.70;74.60;;;;;;5091699;28;20559;-91
2022/05/07 02:23:18;;;;;;;26.15;17.20;;;13.70;74.70;;;;;;5091631;28;20048;-91
2022/05/07 02:25:44;;;;;;;29.70;17.08;;;13.70;74.70;;;;;;5091600;28;20537;-92
2022/05/07 02:28:11;;;;;;;25.67;17.00;;;13.70;74.80;;;;;;5092003;28;20048;-91
2022/05/07 02:30:38;;;;;;;28.02;16.88;;;13.70;74.80;;;;;;5090806;28;20052;-90
2022/05/07 02:33:05;;;;;;;27.88;17.33;;;13.70;74.90;;;;;;5091516;28;20086;-90
2022/05/07 02:35:32;;;;;;;25.35;17.08;;;13.70;74.90;;;;;;5091453;28;20044;-90
2022/05/07 02:37:59;;;;;;;27.58;18.02;;;13.70;75.00;;;;;;5095691;28;20448;-90
2022/05/07 02:40:26;;;;;;;29.63;17.90;;;13.70;75.00;;;;;;5095640;28;20056;-90
2022/05/07 02:42:53;;;;;;;24.55;16.38;;;13.70;75.10;;;;;;5095043;28;20515;-91
2022/05/07 02:45:19;;;;;;;24.58;16.17;;;13.70;75.10;;;;;;5095115;28;20778;-90
2022/05/07 02:47:46;;;;;;;27.52;16.98;;;13.70;75.10;;;;;;5095499;28;20101;-90
2022/05/07 02:50:13;;;;;;;26.08;17.35;;;13.70;75.20;;;;;;5095647;28;20436;-90
2022/05/07 02:52:40;;;;;;;27.10;17.70;;;13.70;75.20;;;;;;5095651;28;20055;-90
2022/05/07 02:55:09;;;;;;;26.85;17.65;;;13.70;75.30;;;;;;5095718;28;20051;-91
2022/05/07 02:57:36;;;;;;;26.10;16.65;;;13.70;75.30;;;;;;5095623;28;20109;-89
2022/05/07 03:00:04;;;;;;;28.60;18.15;;;13.80;75.40;;;;;;5095176;28;20109;-91
2022/05/07 03:02:31;;;;;;;26.58;17.55;;;13.70;75.50;;;;;;5095289;28;20040;-90
2022/05/07 03:04:58;;;;;;;28.17;17.52;;;13.70;75.50;;;;;;5095196;28;20048;-91
2022/05/07 03:07:25;;;;;;;29.45;17.08;;;13.70;75.50;;;;;;5095261;28;20052;-90
2022/05/07 03:09:52;;;;;;;27.45;16.98;;;13.70;75.60;;;;;;5095790;28;20052;-91
2022/05/07 03:12:19;;;;;;;26.42;17.02;;;13.70;75.60;;;;;;5094522;28;20126;-90
2022/05/07 03:14:46;;;;;;;27.58;17.13;;;13.70;75.70;;;;;;5094977;28;20729;-90
2022/05/07 03:17:13;;;;;;;26.45;18.08;;;13.70;75.70;;;;;;5095005;28;20048;-90
2022/05/07 03:19:40;;;;;;;26.92;18.45;;;13.70;75.70;;;;;;5094899;28;20119;-90
2022/05/07 03:22:06;;;;;;;26.15;17.33;;;13.70;75.70;;;;;;5095572;28;20113;-90
2022/05/07 03:24:37;;;;;;;24.52;17.02;;;13.70;75.80;;;;;;5094469;28;20093;-90
2022/05/07 03:27:05;;;;;;;27.05;16.92;;;13.70;75.80;;;;;;5094420;28;20469;-91
2022/05/07 03:29:32;;;;;;;25.63;17.27;;;13.80;75.80;;;;;;5094800;28;20044;-91
2022/05/07 03:31:59;;;;;;;25.63;17.38;;;13.70;75.80;;;;;;5094791;28;20040;-90
2022/05/07 03:34:26;;;;;;;27.02;18.17;;;13.80;75.90;;;;;;5094744;28;20117;-90
2022/05/07 03:36:52;;;;;;;26.10;17.10;;;13.70;75.90;;;;;;5095251;28;20101;-91
2022/05/07 03:39:19;;;;;;;25.80;17.30;;;13.70;75.90;;;;;;5092891;28;20060;-90
2022/05/07 03:42:05;;;;;;;27.17;17.55;;;13.70;75.90;;;;;;5092992;28;20040;-91
2022/05/07 03:44:32;;;;;;;27.58;18.20;;;13.70;76.00;;;;;;5093196;28;20040;-90
2022/05/07 03:47:17;;;;;;;28.63;17.80;;;13.70;76.00;;;;;;5092894;28;20048;-91
2022/05/07 03:49:44;;;;;;;29.00;17.52;;;13.70;76.10;;;;;;5078531;28;20040;-90
2022/05/07 03:54:57;;;;;;;28.13;17.27;;;13.70;76.10;;;;;;5093774;28;20052;-91
2022/05/07 03:57:24;;;;;;;29.40;16.85;;;13.70;76.20;;;;;;5092789;28;20044;-90
2022/05/07 03:59:51;;;;;;;29.30;18.20;;;13.70;76.20;;;;;;5092951;28;20081;-92
2022/05/07 04:02:18;;;;;;;25.98;17.60;;;13.70;76.20;;;;;;5093160;28;20543;-89
2022/05/07 04:04:45;;;;;;;28.48;16.65;;;13.70;76.30;;;;;;5093191;28;20070;-90
2022/05/07 04:07:14;;;;;;;26.63;17.55;;;13.70;76.30;;;;;;5093395;28;20109;-90
2022/05/07 04:09:42;;;;;;;26.23;17.60;;;13.70;76.30;;;;;;5092980;28;20126;-90
2022/05/07 04:12:22;;;;;;;28.45;18.15;;;13.60;76.30;;;;;;5092526;28;20069;-90
2022/05/07 04:14:49;;;;;;;23.65;16.30;;;13.70;76.40;;;;;;5092963;28;20048;-90
2022/05/07 04:17:35;;;;;;;32.25;18.60;;;13.60;76.40;;;;;;5092834;28;20102;-91
2022/05/07 04:20:03;;;;;;;24.85;16.88;;;13.60;76.50;;;;;;5092887;28;20102;-90
2022/05/07 04:22:32;;;;;;;26.27;17.17;;;13.70;76.50;;;;;;5092782;28;20069;-90
2022/05/07 04:24:59;;;;;;;24.13;16.88;;;13.60;76.50;;;;;;5092734;28;20494;-90
2022/05/07 04:27:26;;;;;;;25.27;17.20;;;13.60;76.50;;;;;;5092851;28;20097;-90
2022/05/07 04:29:52;;;;;;;27.50;17.00;;;13.60;76.50;;;;;;5091451;28;20051;-90
2022/05/07 04:35:06;;;;;;;23.88;16.02;;;13.60;76.50;;;;;;5092453;28;20044;-90
2022/05/07 04:37:33;;;;;;;24.23;17.00;;;13.60;76.60;;;;;;5092451;28;20048;-91
2022/05/07 04:40:00;;;;;;;25.17;16.15;;;13.60;76.60;;;;;;5045530;28;1348551;-90
2022/05/07 04:42:27;;;;;;;22.27;16.08;;;13.60;76.60;;;;;;5093260;28;20061;-90
2022/05/07 04:44:54;;;;;;;25.95;16.35;;;13.60;76.60;;;;;;5093169;28;20124;-90
2022/05/07 04:47:21;;;;;;;24.80;16.33;;;13.70;76.60;;;;;;5092171;28;20040;-90
2022/05/07 04:49:48;;;;;;;27.08;17.80;;;13.60;76.70;;;;;;5093417;28;20410;-91
2022/05/07 04:52:15;;;;;;;30.45;16.73;;;13.60;76.70;;;;;;5093441;28;20105;-90
2022/05/07 04:54:42;;;;;;;28.27;16.90;;;13.60;76.70;;;;;;5093203;28;20062;-90
2022/05/07 04:57:15;;;;;;;24.23;17.00;;;13.70;76.80;;;;;;5093015;28;20082;-90
2022/05/07 04:59:42;;;;;;;24.30;16.27;;;13.60;76.80;;;;;;5092234;28;20290;-90
2022/05/07 05:02:08;;;;;;;29.45;17.00;;;13.60;76.80;;;;;;5093008;28;20097;-88
2022/05/07 05:04:36;;;;;;;21.30;14.98;;;13.60;76.80;;;;;;5093223;28;20051;-91
2022/05/07 05:07:03;;;;;;;24.50;16.27;;;13.60;76.90;;;;;;5093608;28;20048;-90
2022/05/07 05:09:30;;;;;;;24.20;16.02;;;13.60;76.90;;;;;;5092487;28;20051;-90
2022/05/07 05:11:57;;;;;;;25.15;16.65;;;13.60;76.90;;;;;;5092785;28;20468;-90
2022/05/07 05:17:09;;;;;;;23.65;15.15;;;13.60;76.90;;;;;;5092709;28;20085;-90
2022/05/07 05:19:36;;;;;;;23.55;16.27;;;13.70;76.90;;;;;;5092964;28;20044;-89
2022/05/07 05:22:03;;;;;;;21.30;15.13;;;13.70;77.00;;;;;;5089029;28;20399;-91
2022/05/07 05:24:31;;;;;;;27.48;17.05;;;13.60;77.00;;;;;;5092218;28;20102;-89
2022/05/07 05:26:58;;;;;;;23.05;15.98;;;13.60;77.00;;;;;;5092646;28;20101;-89
2022/05/07 05:29:24;;;;;;;23.27;15.70;;;13.70;77.00;;;;;;5091427;28;20044;-91
2022/05/07 05:32:17;;;;;;;24.13;16.98;;;13.70;77.00;;;;;;5092520;28;20051;-90
2022/05/07 05:34:49;;;;;;;23.88;16.15;;;13.60;77.10;;;;;;5077671;28;20117;-90
2022/05/07 05:37:16;;;;;;;21.33;14.82;;;13.60;77.10;;;;;;5092234;28;20449;-91
2022/05/07 05:39:44;;;;;;;24.65;16.45;;;13.60;77.20;;;;;;5092690;28;20391;-91
2022/05/07 05:42:11;;;;;;;28.27;16.70;;;13.60;77.20;;;;;;5092233;28;20101;-90
2022/05/07 05:44:39;;;;;;;28.48;16.42;;;13.60;77.20;;;;;;5092186;28;20132;-90
2022/05/07 05:47:08;;;;;;;21.83;14.65;;;13.70;77.30;;;;;;5093135;28;20048;-89
2022/05/07 05:49:35;;;;;;;24.92;15.95;;;13.70;77.30;;;;;;5088880;28;20051;-91
2022/05/07 05:52:07;;;;;;;28.13;16.52;;;13.70;77.40;;;;;;5087329;28;20105;-91
2022/05/07 05:54:36;;;;;;;27.35;16.15;;;13.70;77.40;;;;;;5090533;28;20105;-89
2022/05/07 05:57:22;;;;;;;25.50;16.48;;;13.70;77.40;;;;;;5091611;28;20048;-89
2022/05/07 05:59:49;;;;;;;23.58;15.15;;;13.70;77.40;;;;;;5091531;28;20047;-89
2022/05/07 06:02:18;;;;;;;24.00;15.10;;;13.70;77.50;;;;;;5091616;28;20066;-90
2022/05/07 06:04:45;;;;;;;24.15;15.52;;;13.70;77.50;;;;;;5091779;28;20097;-91
2022/05/07 06:07:12;;;;;;;23.73;15.32;;;13.70;77.50;;;;;;5093474;28;20091;-94
2022/05/07 06:09:39;;;;;;;25.88;15.93;;;13.70;77.50;;;;;;5091756;28;20506;-89
2022/05/07 06:12:06;;;;;;;27.23;15.73;;;13.70;77.50;;;;;;5091743;28;20120;-92
2022/05/07 06:14:33;;;;;;;24.75;15.85;;;13.70;77.50;;;;;;5091792;28;20509;-91
2022/05/07 06:17:00;;;;;;;27.00;15.55;;;13.70;77.60;;;;;;5090807;28;20040;-93
2022/05/07 06:19:28;;;;;;;24.75;16.65;;;13.70;77.60;;;;;;5092118;28;20052;-91
2022/05/07 06:21:55;;;;;;;24.25;16.00;;;13.70;77.70;;;;;;5092212;28;20502;-90
2022/05/07 06:27:28;;;;;;;25.97;16.17;;;13.80;77.80;;;;;;5092049;28;20047;-92
2022/05/07 06:29:59;;;;;;;27.48;16.95;;;13.80;77.80;;;;;;5091840;28;20460;-91
2022/05/07 06:32:37;;;;;;;29.13;16.70;;;13.80;77.90;;;;;;5090566;28;20048;-91
2022/05/07 06:35:22;;;;;;;28.92;17.33;;;13.80;77.90;;;;;;5090375;28;20047;-92
2022/05/07 06:37:49;;;;;;;30.08;17.60;;;13.80;78.00;;;;;;5090947;28;20077;-92
2022/05/07 06:40:38;;;;;;;27.55;17.55;;;13.80;78.00;;;;;;5085940;28;20110;-91
2022/05/07 06:43:06;;;;;;;26.75;17.02;;;13.70;78.10;;;;;;5071829;28;20487;-91
2022/05/07 06:45:33;;;;;;;32.63;18.67;;;13.80;78.20;;;;;;5085356;28;20044;-93
2022/05/07 06:48:01;;;;;;;30.42;18.42;;;13.80;78.20;;;;;;5076352;28;20048;-90
2022/05/07 06:50:28;;;;;;;29.10;18.50;;;13.70;78.20;;;;;;5076121;28;20044;-92
2022/05/07 06:52:57;;;;;;;29.52;18.75;;;13.80;78.30;;;;;;5074417;28;20502;-94
2022/05/07 06:55:23;;;;;;;29.35;18.15;;;13.80;78.40;;;;;;5089095;28;20555;-93
2022/05/07 06:57:53;;;;;;;29.08;18.42;;;13.80;78.50;;;;;;5087421;28;20059;-92
2022/05/07 07:00:40;;;;;;;29.95;19.75;;;13.80;78.50;;;;;;5078177;28;20127;-91
2022/05/07 07:03:06;;;;;;;28.80;18.90;;;13.80;78.60;;;;;;5075691;28;20076;-91
2022/05/07 07:05:33;;;;;;;27.52;17.88;;;13.90;78.70;;;;;;5075743;28;20457;-92
2022/05/07 07:08:00;;;;;;;24.58;17.80;;;13.90;78.80;;;;;;5071976;28;20044;-91
2022/05/07 07:10:27;;;;;;;32.90;17.70;;;13.90;78.80;;;;;;5088110;28;20060;-91
2022/05/07 07:12:54;;;;;;;30.52;18.38;;;13.90;78.80;;;;;;5076163;28;20438;-91
2022/05/07 07:15:22;;;;;;;31.48;18.13;;;13.90;78.90;;;;;;5086640;28;20448;-92
2022/05/07 07:17:49;;;;;;;28.17;16.70;;;13.90;78.90;;;;;;5085039;28;20448;-91
2022/05/07 07:20:16;;;;;;;26.98;16.45;;;14.00;78.90;;;;;;5087756;28;20040;-92
2022/05/07 07:22:46;;;;;;;22.15;16.17;;;14.00;79.00;;;;;;5075244;28;20060;-92
2022/05/07 07:25:13;;;;;;;24.33;16.08;;;14.00;79.00;;;;;;5091206;28;20047;-92
2022/05/07 07:27:40;;;;;;;27.65;15.95;;;14.10;79.00;;;;;;5089974;28;20056;-91
2022/05/07 07:30:08;;;;;;;22.80;15.02;;;14.20;79.00;;;;;;5088121;28;20048;-91
2022/05/07 07:32:38;;;;;;;22.52;14.52;;;14.20;78.90;;;;;;5087647;28;20296;-91
2022/05/07 07:38:10;;;;;;;22.23;13.65;;;14.30;78.90;;;;;;5076942;28;20107;-91
2022/05/07 07:40:38;;;;;;;19.65;13.68;;;14.40;78.90;;;;;;5074902;28;20460;-91
2022/05/07 07:43:05;;;;;;;20.60;13.43;;;14.50;78.80;;;;;;5077698;28;20041;-91
2022/05/07 07:48:18;;;;;;;21.83;12.98;;;14.60;78.70;;;;;;5080527;28;20230;-92
2022/05/07 07:50:48;;;;;;;18.90;12.45;;;14.70;78.60;;;;;;5079198;28;20048;-92
2022/05/07 07:53:15;;;;;;;19.05;12.30;;;14.80;78.50;;;;;;5076979;28;20094;-92
2022/05/07 07:55:43;;;;;;;16.42;11.23;;;14.90;78.40;;;;;;5090501;28;20109;-92
2022/05/07 07:58:27;;;;;;;18.50;11.80;;;15.00;78.20;;;;;;5075727;28;20055;-91
2022/05/07 08:03:39;;;;;;;14.88;10.70;;;15.20;77.90;;;;;;5088595;28;20464;-91
2022/05/07 08:06:06;;;;;;;14.60;10.43;;;15.30;77.70;;;;;;5082147;28;20044;-92
2022/05/07 08:14:04;;;;;;;12.70;8.80;;;15.50;77.10;;;;;;5077961;28;20044;-91
2022/05/07 08:16:31;;;;;;;13.40;9.35;;;15.60;76.90;;;;;;5074903;28;20040;-92
2022/05/07 08:18:58;;;;;;;14.18;9.13;;;15.70;76.80;;;;;;5078144;28;20135;-91
2022/05/07 08:21:25;;;;;;;12.20;8.32;;;15.80;76.60;;;;;;5078584;28;20053;-92
2022/05/07 08:23:52;;;;;;;12.23;8.43;;;15.90;76.40;;;;;;5081643;28;20044;-91
2022/05/07 08:26:19;;;;;;;13.68;8.48;;;15.90;76.20;;;;;;5088553;28;20510;-92
2022/05/07 08:28:47;;;;;;;12.77;8.30;;;16.00;76.00;;;;;;5075337;28;20127;-92
2022/05/07 08:31:15;;;;;;;13.70;7.80;;;16.10;75.80;;;;;;5074804;28;20049;-91
2022/05/07 08:33:42;;;;;;;13.10;8.75;;;16.20;75.50;;;;;;5087533;28;20071;-91
2022/05/07 08:36:10;;;;;;;11.43;7.80;;;16.30;75.30;;;;;;5081155;28;20460;-93
2022/05/07 08:38:38;;;;;;;11.55;7.63;;;16.40;75.10;;;;;;5079347;28;20062;-92
2022/05/07 08:41:05;;;;;;;10.57;7.63;;;16.40;74.90;;;;;;5089421;28;20051;-91
2022/05/07 08:43:36;;;;;;;12.77;7.18;;;16.50;74.70;;;;;;5073949;28;20040;-92
2022/05/07 08:46:16;;;;;;;9.32;7.05;;;16.50;74.50;;;;;;5073208;28;20049;-91
2022/05/07 08:48:47;;;;;;;10.70;6.85;;;16.60;74.20;;;;;;5073128;28;20051;-93
2022/05/07 08:51:16;;;;;;;11.40;7.80;;;16.70;74.10;;;;;;5076736;28;20053;-93
2022/05/07 08:53:53;;;;;;;10.75;7.38;;;16.70;73.90;;;;;;5077967;28;20423;-91
2022/05/07 08:56:22;;;;;;;13.30;7.40;;;16.80;73.70;;;;;;5077659;28;20490;-93
2022/05/07 08:58:53;;;;;;;12.70;7.25;;;16.80;73.50;;;;;;5075127;28;20098;-93
2022/05/07 09:01:21;;;;;;;12.80;7.60;;;16.90;73.30;;;;;;5074510;28;20056;-92
2022/05/07 09:03:50;;;;;;;11.73;7.50;;;16.90;73.20;;;;;;5086875;28;20131;-92
2022/05/07 09:06:17;;;;;;;10.45;6.80;;;16.90;72.90;;;;;;5084313;28;20052;-92
2022/05/07 09:08:46;;;;;;;13.80;7.60;;;17.00;72.80;;;;;;5091085;28;20486;-92
2022/05/07 09:11:14;;;;;;;12.75;7.30;;;17.00;72.70;;;;;;5086004;28;20552;-92
2022/05/07 09:13:41;;;;;;;9.00;6.53;;;17.10;72.50;;;;;;5089124;28;20040;-92
2022/05/07 09:16:11;;;;;;;10.52;6.43;;;17.20;72.40;;;;;;5076019;28;20498;-93
2022/05/07 09:18:38;;;;;;;12.07;6.50;;;17.20;72.30;;;;;;5090576;28;20459;-92
2022/05/07 09:21:23;;;;;;;10.98;6.18;;;17.30;72.20;;;;;;5081039;28;20040;-92
2022/05/07 09:24:06;;;;;;;9.85;6.68;;;17.40;72.00;;;;;;5077053;28;20044;-91
2022/05/07 09:26:39;;;;;;;10.43;6.20;;;17.40;71.80;;;;;;5077131;28;20445;-93
2022/05/07 09:29:08;;;;;;;8.68;5.78;;;17.40;71.70;;;;;;5077017;28;20181;-92
2022/05/07 09:31:36;;;;;;;12.55;6.20;;;17.40;71.50;;;;;;5072971;28;20040;-91
2022/05/07 09:37:20;;;;;;;12.00;6.47;;;17.60;71.20;;;;;;5072376;28;20041;-92
2022/05/07 09:39:49;;;;;;;12.05;6.65;;;17.60;71.10;;;;;;5072329;28;20052;-92
2022/05/07 09:42:18;;;;;;;9.15;5.65;;;17.60;71.00;;;;;;5076985;28;20048;-92
2022/05/07 09:45:04;;;;;;;9.70;6.30;;;17.60;70.90;;;;;;5075848;28;20094;-92
2022/05/07 09:47:32;;;;;;;9.18;6.38;;;17.70;70.80;;;;;;5091720;28;20114;-92
2022/05/07 09:58:19;;;;;;;10.25;6.32;;;17.90;70.50;;;;;;5088392;28;20101;-92
2022/05/07 10:01:24;;;;;;;9.25;5.13;;;17.90;70.50;;;;;;5076724;28;20396;-92
2022/05/07 10:04:09;;;;;;;9.40;5.32;;;17.90;70.40;;;;;;5076606;28;20055;-92
2022/05/07 10:07:01;;;;;;;8.88;5.28;;;18.00;70.30;;;;;;5077205;28;20472;-92
2022/05/07 10:09:58;;;;;;;9.57;5.80;;;18.00;70.20;;;;;;5076633;28;20048;-91
2022/05/07 10:12:26;;;;;;;9.52;6.00;;;18.10;70.10;;;;;;5076295;28;20041;-91
2022/05/07 10:15:14;;;;;;;12.75;5.63;;;18.20;70.00;;;;;;5075469;28;20455;-91
2022/05/07 10:17:44;;;;;;;8.88;5.75;;;18.20;69.90;;;;;;5076332;28;20468;-91
2022/05/07 10:20:14;;;;;;;10.40;5.85;;;18.20;69.80;;;;;;5076372;28;20351;-92
2022/05/07 10:22:41;;;;;;;10.25;5.90;;;18.30;69.70;;;;;;5072803;28;20444;-92
2022/05/07 10:25:12;;;;;;;9.30;5.22;;;18.40;69.60;;;;;;5075125;28;20053;-92
2022/05/07 10:27:41;;;;;;;9.20;5.93;;;18.40;69.50;;;;;;5071378;28;20053;-90
2022/05/07 10:30:17;;;;;;;10.13;5.90;;;18.50;69.30;;;;;;5070613;28;20094;-91
2022/05/07 10:33:04;;;;;;;8.75;5.65;;;18.60;69.20;;;;;;5076469;28;20044;-92
2022/05/07 10:35:45;;;;;;;9.43;5.78;;;18.60;69.00;;;;;;5091685;28;20102;-93
2022/05/07 10:38:32;;;;;;;11.20;5.55;;;18.70;68.90;;;;;;5075424;28;20047;-93
2022/05/07 10:41:07;;;;;;;9.82;6.50;;;18.80;68.80;;;;;;5087820;28;20121;-91
2022/05/07 10:43:56;;;;;;;10.25;5.78;;;18.90;68.70;;;;;;5071565;28;20062;-92
2022/05/07 10:46:23;;;;;;;9.02;5.50;;;18.90;68.50;;;;;;5087829;28;20098;-92
2022/05/07 10:48:56;;;;;;;9.45;6.18;;;18.90;68.40;;;;;;5087436;28;20099;-92
2022/05/07 10:51:58;;;;;;;10.40;6.28;;;19.00;68.20;;;;;;5077407;28;20049;-92
2022/05/07 10:54:26;;;;;;;9.00;6.57;;;19.00;68.10;;;;;;5076025;28;20048;-92
2022/05/07 10:56:58;;;;;;;11.35;6.05;;;19.10;67.90;;;;;;5076253;28;20047;-92
2022/05/07 10:59:27;;;;;;;11.98;6.57;;;19.10;67.80;;;;;;5080087;28;20044;-92
2022/05/07 11:02:05;;;;;;;9.60;6.20;;;19.20;67.80;;;;;;5077739;28;20051;-91
2022/05/07 11:04:43;;;;;;;9.55;5.78;;;19.20;67.70;;;;;;5092135;28;20075;-92
2022/05/07 11:07:10;;;;;;;10.18;6.03;;;19.30;67.60;;;;;;5091274;28;20044;-92
2022/05/07 11:09:40;;;;;;;9.93;6.03;;;19.30;67.50;;;;;;5080590;28;20457;-91
2022/05/07 11:12:26;;;;;;;9.95;6.20;;;19.30;67.40;;;;;;5084497;28;20112;-91
2022/05/07 11:14:54;;;;;;;11.88;6.80;;;19.40;67.20;;;;;;5088442;28;20044;-91
2022/05/07 11:17:31;;;;;;;10.85;6.47;;;19.40;67.10;;;;;;5089502;28;20052;-92
2022/05/07 11:19:58;;;;;;;10.70;6.03;;;19.50;66.80;;;;;;5078330;28;20101;-93
2022/05/07 11:22:30;;;;;;;10.50;6.55;;;19.60;66.70;;;;;;5076525;28;20102;-91
2022/05/07 11:24:59;;;;;;;9.88;6.18;;;19.60;66.50;;;;;;5079512;28;20456;-91
2022/05/07 11:27:31;;;;;;;11.02;6.40;;;19.70;66.30;;;;;;5079085;28;20049;-92
2022/05/07 11:30:12;;;;;;;9.40;6.78;;;19.80;66.10;;;;;;5079331;28;20078;-92
2022/05/07 11:32:40;;;;;;;9.93;6.65;;;19.80;65.90;;;;;;5079579;28;20094;-93
2022/05/07 11:35:08;;;;;;;10.57;6.22;;;19.90;65.70;;;;;;5079346;28;20040;-91
2022/05/07 11:37:41;;;;;;;9.50;6.50;;;19.90;65.50;;;;;;5074991;28;20101;-91
2022/05/07 11:40:10;;;;;;;9.55;6.63;;;19.90;65.30;;;;;;5090285;28;20062;-92
2022/05/07 11:45:25;;;;;;;11.07;5.88;;;20.00;65.10;;;;;;5087408;28;20048;-92
2022/05/07 11:45:37;;;;;;;9.63;5.63;;;20.10;64.80;;;;;;5074343;28;20056;-92
2022/05/07 11:48:23;;;;;;;10.93;6.32;;;20.10;64.60;;;;;;5073159;28;20106;-91
2022/05/07 11:50:50;;;;;;;8.68;5.53;;;20.10;64.40;;;;;;5079009;28;20102;-93
2022/05/07 11:53:22;;;;;;;9.88;5.10;;;20.20;64.20;;;;;;5077080;28;20166;-92
2022/05/07 11:55:50;;;;;;;8.73;5.10;;;20.30;64.00;;;;;;5090216;28;20396;-92
2022/05/07 11:58:22;;;;;;;9.88;5.50;;;20.30;63.80;;;;;;5076642;28;20094;-92
2022/05/07 12:00:55;;;;;;;11.13;5.68;;;20.40;63.60;;;;;;5078804;28;20122;-93
2022/05/07 12:03:25;;;;;;;8.18;5.25;;;20.40;63.40;;;;;;5078520;28;20045;-93
2022/05/07 12:05:55;;;;;;;9.57;4.97;;;20.40;63.30;;;;;;5078905;28;20041;-92
2022/05/07 12:08:24;;;;;;;11.15;5.43;;;20.40;63.20;;;;;;5078596;28;20052;-91
2022/05/07 12:10:53;;;;;;;8.57;4.90;;;20.40;63.00;;;;;;5076172;28;20044;-91
2022/05/07 12:13:21;;;;;;;9.20;5.68;;;20.40;62.90;;;;;;5075084;28;20060;-91
2022/05/07 12:18:46;;;;;;;7.25;5.05;;;20.40;62.70;;;;;;5029564;28;20606;-91
2022/05/07 12:21:13;;;;;;;12.65;7.05;;;20.50;62.70;;;;;;5027824;28;20507;-92
2022/05/07 12:31:50;;;;;;;7.85;5.13;;;20.50;62.40;;;;;;5015045;28;20041;-91
2022/05/07 12:34:17;;;;;;;7.93;5.30;;;20.40;62.30;;;;;;5030382;28;20049;-92
2022/05/07 12:36:45;;;;;;;9.02;4.72;;;20.40;62.30;;;;;;5029183;28;20057;-93
2022/05/07 12:39:12;;;;;;;8.63;5.15;;;20.40;62.20;;;;;;5026877;28;20111;-91
2022/05/07 12:41:43;;;;;;;7.63;4.47;;;20.40;62.30;;;;;;5028995;28;20057;-91
2022/05/07 12:44:11;;;;;;;9.90;4.88;;;20.40;62.30;;;;;;5027546;28;20037;-91
2022/05/07 12:46:38;;;;;;;7.10;4.93;;;20.40;62.20;;;;;;5012500;28;20046;-93
2022/05/07 12:49:05;;;;;;;8.00;4.68;;;20.40;62.20;;;;;;5031506;28;20092;-91
2022/05/07 12:51:32;;;;;;;8.85;5.10;;;20.40;62.10;;;;;;5027708;28;20041;-91
2022/05/07 12:53:59;;;;;;;7.85;5.07;;;20.40;62.20;;;;;;5028241;28;20622;-93
2022/05/07 12:56:27;;;;;;;7.55;4.80;;;20.40;62.10;;;;;;5071824;28;20498;-92
2022/05/07 12:58:54;;;;;;;7.38;4.57;;;20.40;62.10;;;;;;5075791;28;20064;-92
2022/05/07 13:01:21;;;;;;;8.93;4.65;;;20.40;62.00;;;;;;5075381;28;20048;-92
2022/05/07 13:03:48;;;;;;;9.48;5.13;;;20.40;61.90;;;;;;5077587;28;20048;-91
2022/05/07 13:06:15;;;;;;;9.88;4.95;;;20.40;61.90;;;;;;5083892;28;20410;-92
2022/05/07 13:08:42;;;;;;;7.55;4.55;;;20.40;61.90;;;;;;5084205;28;20098;-92
2022/05/07 13:11:09;;;;;;;7.40;4.75;;;20.40;61.80;;;;;;5077751;28;20036;-92
2022/05/07 13:13:36;;;;;;;9.45;5.03;;;20.40;61.80;;;;;;5073246;28;20570;-91
2022/05/07 13:16:03;;;;;;;7.75;4.43;;;20.40;61.80;;;;;;5089089;28;20048;-91
2022/05/07 13:18:30;;;;;;;8.70;5.15;;;20.30;61.80;;;;;;5077449;28;20040;-91
2022/05/07 13:20:57;;;;;;;10.27;5.13;;;20.30;61.70;;;;;;5076803;28;20105;-91
2022/05/07 13:23:25;;;;;;;7.20;4.45;;;20.30;61.70;;;;;;5077247;28;20554;-92
2022/05/07 13:25:53;;;;;;;7.97;4.93;;;20.30;61.70;;;;;;5075369;28;20052;-92
2022/05/07 13:28:19;;;;;;;9.30;4.43;;;20.30;61.70;;;;;;5075095;28;20053;-92
2022/05/07 13:30:47;;;;;;;9.57;4.30;;;20.30;61.70;;;;;;5072617;28;20461;-92
2022/05/07 13:33:14;;;;;;;7.22;4.72;;;20.30;61.70;;;;;;5083351;28;20093;-93
2022/05/07 13:35:41;;;;;;;6.20;4.25;;;20.30;61.70;;;;;;5083765;28;20102;-92
2022/05/07 13:38:08;;;;;;;7.30;3.97;;;20.30;61.70;;;;;;5077026;28;20498;-92
2022/05/07 13:40:36;;;;;;;6.47;4.53;;;20.30;61.70;;;;;;5072709;28;20052;-91
2022/05/07 13:43:03;;;;;;;7.20;4.57;;;20.30;61.70;;;;;;5072634;28;20097;-91
2022/05/07 13:45:30;;;;;;;8.82;6.35;;;20.30;61.70;;;;;;5071321;28;20074;-92